createdAt,value
2022-10-08T00:00:10.369Z,2.53
2022-10-08T00:01:15.210Z,1.90
2022-10-08T00:02:18.269Z,2.65
2022-10-08T00:03:22.931Z,2.00
2022-10-08T00:04:25.711Z,1.65
2022-10-08T00:05:28.407Z,2.83
2022-10-08T00:06:32.890Z,2.37
2022-10-08T00:07:35.653Z,2.40
2022-10-08T00:08:41.533Z,1.80
2022-10-08T00:09:44.229Z,2.00
2022-10-08T00:10:55.801Z,2.30
2022-10-08T00:11:58.409Z,2.00
2022-10-08T00:13:01.368Z,1.90
2022-10-08T00:14:04.530Z,1.80
2022-10-08T00:15:07.935Z,2.22
2022-10-08T00:16:16.862Z,2.90
2022-10-08T00:17:19.651Z,2.08
2022-10-08T00:18:22.900Z,2.30
2022-10-08T00:19:27.262Z,2.45
2022-10-08T00:20:29.818Z,2.12
2022-10-08T00:21:36.249Z,1.92
2022-10-08T00:22:38.936Z,1.70
2022-10-08T00:23:43.016Z,2.37
2022-10-08T00:24:46.686Z,1.83
2022-10-08T00:25:49.197Z,1.87
2022-10-08T00:26:52.682Z,1.85
2022-10-08T00:27:55.392Z,2.20
2022-10-08T00:29:00.625Z,2.00
2022-10-08T00:30:04.935Z,2.90
2022-10-08T00:31:13.451Z,2.25
2022-10-08T00:32:17.984Z,1.70
2022-10-08T00:33:20.610Z,2.33
2022-10-08T00:34:23.948Z,2.28
2022-10-08T00:35:26.600Z,3.00
2022-10-08T00:36:34.271Z,2.53
2022-10-08T00:37:36.995Z,2.15
2022-10-08T00:38:40.864Z,2.05
2022-10-08T00:39:43.755Z,1.92
2022-10-08T00:40:46.524Z,2.35
2022-10-08T00:41:52.586Z,2.50
2022-10-08T00:42:55.255Z,2.97
2022-10-08T00:44:02.322Z,1.85
2022-10-08T00:45:06.543Z,2.03
2022-10-08T00:46:38.590Z,2.10
2022-10-08T00:47:49.118Z,2.50
2022-10-08T00:49:00.263Z,2.00
2022-10-08T00:50:09.648Z,2.67
2022-10-08T00:51:12.482Z,1.80
2022-10-08T00:52:17.023Z,2.20
2022-10-08T00:53:19.985Z,2.70
2022-10-08T00:54:23.827Z,2.05
2022-10-08T00:55:28.250Z,2.33
2022-10-08T00:56:37.728Z,2.17
2022-10-08T00:57:41.373Z,2.70
2022-10-08T00:58:45.352Z,2.55
2022-10-08T00:59:48.379Z,3.17
2022-10-08T01:00:52.113Z,2.62
2022-10-08T01:01:55.203Z,3.05
2022-10-08T01:02:57.927Z,2.95
2022-10-08T01:04:05.603Z,2.60
2022-10-08T01:05:09.165Z,2.87
2022-10-08T01:06:41.265Z,2.72
2022-10-08T01:07:59.748Z,2.85
2022-10-08T01:09:18.672Z,2.40
2022-10-08T01:10:34.746Z,2.10
2022-10-08T01:11:37.555Z,2.30
2022-10-08T01:12:40.302Z,2.05
2022-10-08T01:13:56.550Z,2.70
2022-10-08T01:15:16.210Z,2.00
2022-10-08T01:16:36.215Z,2.35
2022-10-08T01:18:10.750Z,2.33
2022-10-08T01:19:25.848Z,1.90
2022-10-08T01:20:40.853Z,2.33
2022-10-08T01:21:53.190Z,2.00
2022-10-08T01:23:50.842Z,2.85
2022-10-08T01:25:35.152Z,2.37
2022-10-08T01:26:55.859Z,1.85
2022-10-08T01:28:33.840Z,1.65
2022-10-08T01:29:50.375Z,2.12
2022-10-08T01:31:07.231Z,2.47
2022-10-08T01:32:17.423Z,2.75
2022-10-08T01:33:27.176Z,2.80
2022-10-08T01:34:45.251Z,2.00
2022-10-08T01:35:54.233Z,2.03
2022-10-08T01:36:59.613Z,2.20
2022-10-08T01:38:07.276Z,2.58
2022-10-08T01:39:15.363Z,2.87
2022-10-08T01:40:23.508Z,3.62
2022-10-08T01:41:27.088Z,2.67
2022-10-08T01:42:34.170Z,3.05
2022-10-08T01:43:44.331Z,2.92
2022-10-08T01:44:52.852Z,3.87
2022-10-08T01:46:00.484Z,4.22
2022-10-08T01:47:07.375Z,4.68
2022-10-08T01:48:15.447Z,4.97
2022-10-08T01:49:23.658Z,4.93
2022-10-08T01:50:35.343Z,4.50
2022-10-08T01:51:55.465Z,4.62
2022-10-08T01:53:02.170Z,4.90
2022-10-08T01:54:09.650Z,4.45
2022-10-08T01:55:17.971Z,3.67
2022-10-08T01:56:27.255Z,4.43
2022-10-08T01:57:33.416Z,3.47
2022-10-08T01:59:24.051Z,3.05
2022-10-08T02:00:26.790Z,3.47
2022-10-08T02:02:01.771Z,2.90
2022-10-08T02:03:04.647Z,3.10
2022-10-08T02:04:26.130Z,3.20
2022-10-08T02:05:34.888Z,3.05
2022-10-08T02:06:44.415Z,2.37
2022-10-08T02:07:47.010Z,2.90
2022-10-08T02:08:50.009Z,3.55
2022-10-08T02:10:06.738Z,2.42
2022-10-08T02:11:09.610Z,2.33
2022-10-08T02:12:13.035Z,2.78
2022-10-08T02:13:15.928Z,3.05
2022-10-08T02:14:19.370Z,2.60
2022-10-08T02:15:50.089Z,2.85
2022-10-08T02:17:03.649Z,2.67
2022-10-08T02:18:13.527Z,2.58
2022-10-08T02:19:50.051Z,2.15
2022-10-08T02:21:07.331Z,2.78
2022-10-08T02:22:12.776Z,2.17
2022-10-08T02:23:32.622Z,2.70
2022-10-08T02:24:43.849Z,3.42
2022-10-08T02:25:57.461Z,2.03
2022-10-08T02:27:03.732Z,2.37
2022-10-08T02:28:19.639Z,2.85
2022-10-08T02:29:35.891Z,2.78
2022-10-08T02:31:18.426Z,2.35
2022-10-08T02:32:24.578Z,2.33
2022-10-08T02:33:33.426Z,2.45
2022-10-08T02:34:46.630Z,1.85
2022-10-08T02:35:55.573Z,2.10
2022-10-08T02:37:25.206Z,2.65
2022-10-08T02:38:35.484Z,2.50
2022-10-08T02:39:43.784Z,2.10
2022-10-08T02:40:51.296Z,2.62
2022-10-08T02:41:58.220Z,1.95
2022-10-08T02:43:11.415Z,1.90
2022-10-08T02:44:49.059Z,1.77
2022-10-08T02:46:01.686Z,2.20
2022-10-08T02:47:08.969Z,2.08
2022-10-08T02:48:23.490Z,1.77
2022-10-08T02:49:35.174Z,2.28
2022-10-08T02:50:41.300Z,2.40
2022-10-08T02:51:51.816Z,2.15
2022-10-08T02:52:55.051Z,2.35
2022-10-08T02:53:59.452Z,2.40
2022-10-08T02:55:07.767Z,2.78
2022-10-08T02:56:32.970Z,2.75
2022-10-08T02:57:44.570Z,2.67
2022-10-08T02:58:47.748Z,2.05
2022-10-08T02:59:51.086Z,2.20
2022-10-08T03:00:59.656Z,2.03
2022-10-08T03:02:04.800Z,2.42
2022-10-08T03:03:23.287Z,2.72
2022-10-08T03:04:45.770Z,2.33
2022-10-08T03:05:52.812Z,1.87
2022-10-08T03:06:57.529Z,1.58
2022-10-08T03:08:00.899Z,2.17
2022-10-08T03:09:07.009Z,2.10
2022-10-08T03:10:10.288Z,2.30
2022-10-08T03:11:13.807Z,2.45
2022-10-08T03:12:16.471Z,2.17
2022-10-08T03:13:19.650Z,3.30
2022-10-08T03:14:24.929Z,3.45
2022-10-08T03:15:28.927Z,2.40
2022-10-08T03:16:44.232Z,3.35
2022-10-08T03:17:48.895Z,3.92
2022-10-08T03:18:52.732Z,3.35
2022-10-08T03:19:55.398Z,3.35
2022-10-08T03:20:58.491Z,5.20
2022-10-08T03:22:02.570Z,3.10
2022-10-08T03:23:05.230Z,4.18
2022-10-08T03:24:09.130Z,3.67
2022-10-08T03:25:11.689Z,3.65
2022-10-08T03:26:18.779Z,3.95
2022-10-08T03:27:21.331Z,3.70
2022-10-08T03:28:24.081Z,3.80
2022-10-08T03:29:26.770Z,3.33
2022-10-08T03:30:29.492Z,3.10
2022-10-08T03:31:38.268Z,4.15
2022-10-08T03:32:40.822Z,3.53
2022-10-08T03:33:43.612Z,4.45
2022-10-08T03:34:46.250Z,3.28
2022-10-08T03:35:49.168Z,4.15
2022-10-08T03:36:51.733Z,3.80
2022-10-08T03:37:54.850Z,4.12
2022-10-08T03:38:57.768Z,4.22
2022-10-08T03:40:00.410Z,4.30
2022-10-08T03:41:03.010Z,3.85
2022-10-08T03:42:05.769Z,3.37
2022-10-08T03:43:08.451Z,3.40
2022-10-08T03:44:12.614Z,2.95
2022-10-08T03:45:15.205Z,2.67
2022-10-08T03:46:17.908Z,3.05
2022-10-08T03:47:20.569Z,3.17
2022-10-08T03:48:24.101Z,3.72
2022-10-08T03:49:26.810Z,2.95
2022-10-08T03:50:29.375Z,3.65
2022-10-08T03:51:32.005Z,3.15
2022-10-08T03:52:34.501Z,3.22
2022-10-08T03:53:39.180Z,4.03
2022-10-08T03:54:41.737Z,3.47
2022-10-08T03:55:44.490Z,3.78
2022-10-08T03:56:47.971Z,4.20
2022-10-08T03:57:51.334Z,3.03
2022-10-08T03:58:56.170Z,3.22
2022-10-08T03:59:58.770Z,3.10
2022-10-08T04:01:03.990Z,3.28
2022-10-08T04:02:06.885Z,3.80
2022-10-08T04:03:11.166Z,3.47
2022-10-08T04:04:13.954Z,3.72
2022-10-08T04:05:16.729Z,3.60
2022-10-08T04:06:20.529Z,5.00
2022-10-08T04:07:23.246Z,3.33
2022-10-08T04:08:26.887Z,3.90
2022-10-08T04:09:29.616Z,4.05
2022-10-08T04:10:32.171Z,4.03
2022-10-08T04:11:34.741Z,3.85
2022-10-08T04:12:37.409Z,3.95
2022-10-08T04:13:40.839Z,3.60
2022-10-08T04:14:43.498Z,3.20
2022-10-08T04:15:48.664Z,4.45
2022-10-08T04:16:51.336Z,3.85
2022-10-08T04:17:53.968Z,4.05
2022-10-08T04:18:56.651Z,3.90
2022-10-08T04:19:59.526Z,4.12
2022-10-08T04:21:06.608Z,3.72
2022-10-08T04:22:09.211Z,4.03
2022-10-08T04:23:12.547Z,4.43
2022-10-08T04:24:15.242Z,3.85
2022-10-08T04:25:18.124Z,3.45
2022-10-08T04:26:20.819Z,4.05
2022-10-08T04:27:23.732Z,3.80
2022-10-08T04:28:26.739Z,3.75
2022-10-08T04:29:29.415Z,3.70
2022-10-08T04:30:33.010Z,3.92
2022-10-08T04:31:35.693Z,4.05
2022-10-08T04:32:38.394Z,3.72
2022-10-08T04:33:41.092Z,3.83
2022-10-08T04:34:43.780Z,4.55
2022-10-08T04:35:46.468Z,4.05
2022-10-08T04:36:49.074Z,3.85
2022-10-08T04:37:51.853Z,4.30
2022-10-08T04:38:54.572Z,3.65
2022-10-08T04:39:57.303Z,4.62
2022-10-08T04:41:08.496Z,3.62
2022-10-08T04:42:11.078Z,3.78
2022-10-08T04:43:14.100Z,4.05
2022-10-08T04:44:16.833Z,3.90
2022-10-08T04:45:19.534Z,3.83
2022-10-08T04:46:23.089Z,2.95
2022-10-08T04:47:26.011Z,4.25
2022-10-08T04:48:28.924Z,3.53
2022-10-08T04:49:31.796Z,4.05
2022-10-08T04:50:34.442Z,4.07
2022-10-08T04:51:37.017Z,3.78
2022-10-08T04:52:39.542Z,3.62
2022-10-08T04:53:42.893Z,3.97
2022-10-08T04:54:45.552Z,3.37
2022-10-08T04:55:48.222Z,3.35
2022-10-08T04:56:51.354Z,2.80
2022-10-08T04:57:54.026Z,4.68
2022-10-08T04:58:59.139Z,3.22
2022-10-08T05:00:18.716Z,4.07
2022-10-08T05:01:26.209Z,2.60
2022-10-08T05:02:28.971Z,3.47
2022-10-08T05:03:32.242Z,2.80
2022-10-08T05:04:34.859Z,3.58
2022-10-08T05:05:45.744Z,3.62
2022-10-08T05:07:51.092Z,2.62
2022-10-08T05:08:54.591Z,2.65
2022-10-08T05:09:57.467Z,2.70
2022-10-08T05:11:00.081Z,2.47
2022-10-08T05:12:02.965Z,3.22
2022-10-08T05:13:05.682Z,3.50
2022-10-08T05:14:10.398Z,3.35
2022-10-08T05:15:13.088Z,3.72
2022-10-08T05:16:17.762Z,2.45
2022-10-08T05:17:20.437Z,2.65
2022-10-08T05:18:23.222Z,2.33
2022-10-08T05:19:26.010Z,2.75
2022-10-08T05:20:28.521Z,2.33
2022-10-08T05:21:32.263Z,2.22
2022-10-08T05:22:34.883Z,2.47
2022-10-08T05:23:38.165Z,2.50
2022-10-08T05:24:40.886Z,2.83
2022-10-08T05:25:43.590Z,2.33
2022-10-08T05:26:57.939Z,2.60
2022-10-08T05:28:02.779Z,2.55
2022-10-08T05:29:06.191Z,2.10
2022-10-08T05:30:09.568Z,2.60
2022-10-08T05:31:12.294Z,2.35
2022-10-08T05:32:14.921Z,2.70
2022-10-08T05:33:17.530Z,2.28
2022-10-08T05:34:20.237Z,2.62
2022-10-08T05:35:23.009Z,2.10
2022-10-08T05:36:27.990Z,2.58
2022-10-08T05:37:30.702Z,2.35
2022-10-08T05:38:35.482Z,2.62
2022-10-08T05:39:38.182Z,2.15
2022-10-08T05:40:40.900Z,2.33
2022-10-08T05:41:43.557Z,2.50
2022-10-08T05:42:46.459Z,3.03
2022-10-08T05:43:49.746Z,2.03
2022-10-08T05:44:52.399Z,2.10
2022-10-08T05:45:55.196Z,2.72
2022-10-08T05:46:58.421Z,2.30
2022-10-08T05:48:01.297Z,2.75
2022-10-08T05:49:06.306Z,2.70
2022-10-08T05:50:09.447Z,2.12
2022-10-08T05:51:15.037Z,2.40
2022-10-08T05:52:17.706Z,2.78
2022-10-08T05:53:20.329Z,2.45
2022-10-08T05:54:22.984Z,2.90
2022-10-08T05:55:26.007Z,3.12
2022-10-08T05:56:29.179Z,2.50
2022-10-08T05:57:31.941Z,2.65
2022-10-08T05:58:36.493Z,2.40
2022-10-08T05:59:39.139Z,2.28
2022-10-08T06:00:41.747Z,2.58
2022-10-08T06:01:44.706Z,2.62
2022-10-08T06:02:50.630Z,2.58
2022-10-08T06:04:12.170Z,2.92
2022-10-08T06:05:14.847Z,2.45
2022-10-08T06:06:17.896Z,2.60
2022-10-08T06:07:20.548Z,2.10
2022-10-08T06:08:23.208Z,2.72
2022-10-08T06:09:25.868Z,2.33
2022-10-08T06:10:30.185Z,2.30
2022-10-08T06:11:35.142Z,2.45
2022-10-08T06:12:37.797Z,2.25
2022-10-08T06:13:40.589Z,2.72
2022-10-08T06:14:43.153Z,2.67
2022-10-08T06:16:00.356Z,2.60
2022-10-08T06:17:03.132Z,3.17
2022-10-08T06:18:06.064Z,2.12
2022-10-08T06:19:09.977Z,2.42
2022-10-08T06:20:12.664Z,3.33
2022-10-08T06:21:18.710Z,2.60
2022-10-08T06:22:21.354Z,1.90
2022-10-08T06:23:24.601Z,2.90
2022-10-08T06:24:27.261Z,3.17
2022-10-08T06:25:29.926Z,2.72
2022-10-08T06:26:38.261Z,2.92
2022-10-08T06:27:40.931Z,3.15
2022-10-08T06:28:44.768Z,2.95
2022-10-08T06:29:47.419Z,2.37
2022-10-08T06:30:50.008Z,2.50
2022-10-08T06:31:52.679Z,3.17
2022-10-08T06:32:55.368Z,3.20
2022-10-08T06:33:58.757Z,2.35
2022-10-08T06:35:01.460Z,2.85
2022-10-08T06:36:18.499Z,2.35
2022-10-08T06:37:21.139Z,2.55
2022-10-08T06:38:23.818Z,2.83
2022-10-08T06:39:26.481Z,2.75
2022-10-08T06:40:32.505Z,2.80
2022-10-08T06:41:35.397Z,2.55
2022-10-08T06:42:38.104Z,2.37
2022-10-08T06:43:40.679Z,2.70
2022-10-08T06:44:43.402Z,2.97
2022-10-08T06:45:47.056Z,3.72
2022-10-08T06:46:49.953Z,3.95
2022-10-08T06:47:52.506Z,4.40
2022-10-08T06:48:55.166Z,3.85
2022-10-08T06:49:57.798Z,2.85
2022-10-08T06:51:14.577Z,2.85
2022-10-08T06:52:17.155Z,3.25
2022-10-08T06:53:19.992Z,2.90
2022-10-08T06:54:25.252Z,2.60
2022-10-08T06:55:27.917Z,2.20
2022-10-08T06:56:30.979Z,3.22
2022-10-08T06:57:33.877Z,2.50
2022-10-08T06:58:38.226Z,1.90
2022-10-08T06:59:40.938Z,2.40
2022-10-08T07:00:43.657Z,2.50
2022-10-08T07:01:46.432Z,2.55
2022-10-08T07:02:49.643Z,2.55
2022-10-08T07:03:55.289Z,2.72
2022-10-08T07:04:57.905Z,2.10
2022-10-08T07:06:01.817Z,1.95
2022-10-08T07:07:04.691Z,2.60
2022-10-08T07:08:07.469Z,2.40
2022-10-08T07:09:10.672Z,2.62
2022-10-08T07:10:17.702Z,3.60
2022-10-08T07:11:22.086Z,3.58
2022-10-08T07:12:24.795Z,3.00
2022-10-08T07:13:29.008Z,2.85
2022-10-08T07:14:31.633Z,2.33
2022-10-08T07:15:34.338Z,2.25
2022-10-08T07:16:37.155Z,2.85
2022-10-08T07:17:39.857Z,2.62
2022-10-08T07:18:42.866Z,2.12
2022-10-08T07:19:45.551Z,2.95
2022-10-08T07:20:56.206Z,2.87
2022-10-08T07:22:01.323Z,3.00
2022-10-08T07:23:04.197Z,2.45
2022-10-08T07:24:07.085Z,2.20
2022-10-08T07:25:09.741Z,2.45
2022-10-08T07:26:15.326Z,2.37
2022-10-08T07:27:19.793Z,1.90
2022-10-08T07:28:24.008Z,2.45
2022-10-08T07:29:26.722Z,2.17
2022-10-08T07:30:29.332Z,1.90
2022-10-08T07:31:35.541Z,2.12
2022-10-08T07:32:38.210Z,1.92
2022-10-08T07:33:41.062Z,2.10
2022-10-08T07:34:43.691Z,2.40
2022-10-08T07:35:46.494Z,2.28
2022-10-08T07:36:49.095Z,1.70
2022-10-08T07:37:51.831Z,2.33
2022-10-08T07:38:56.277Z,2.25
2022-10-08T07:39:58.943Z,2.35
2022-10-08T07:41:01.582Z,2.20
2022-10-08T07:42:04.257Z,2.58
2022-10-08T07:43:06.864Z,2.28
2022-10-08T07:44:12.324Z,2.85
2022-10-08T07:45:15.123Z,2.85
2022-10-08T07:46:18.007Z,2.30
2022-10-08T07:47:20.773Z,2.60
2022-10-08T07:48:23.510Z,1.80
2022-10-08T07:49:26.386Z,2.50
2022-10-08T07:50:29.033Z,2.00
2022-10-08T07:51:33.890Z,2.28
2022-10-08T07:52:36.428Z,2.33
2022-10-08T07:53:40.481Z,1.98
2022-10-08T07:54:45.551Z,2.40
2022-10-08T07:55:48.284Z,2.03
2022-10-08T07:56:50.968Z,2.22
2022-10-08T07:57:54.346Z,1.90
2022-10-08T07:58:58.016Z,2.08
2022-10-08T08:00:00.604Z,1.83
2022-10-08T08:01:06.573Z,1.90
2022-10-08T08:02:09.937Z,2.50
2022-10-08T08:03:14.632Z,2.10
2022-10-08T08:04:17.260Z,2.45
2022-10-08T08:05:20.060Z,2.10
2022-10-08T08:06:24.281Z,2.42
2022-10-08T08:07:26.903Z,2.30
2022-10-08T08:08:30.592Z,2.78
2022-10-08T08:09:33.429Z,2.10
2022-10-08T08:10:36.066Z,3.30
2022-10-08T08:11:40.158Z,2.92
2022-10-08T08:12:42.691Z,2.55
2022-10-08T08:13:45.857Z,2.28
2022-10-08T08:14:48.500Z,2.22
2022-10-08T08:16:01.291Z,2.40
2022-10-08T08:17:04.013Z,2.08
2022-10-08T08:18:06.951Z,2.12
2022-10-08T08:19:09.542Z,1.92
2022-10-08T08:20:12.111Z,2.00
2022-10-08T08:21:16.540Z,1.80
2022-10-08T08:22:19.337Z,2.47
2022-10-08T08:23:21.926Z,1.80
2022-10-08T08:24:24.627Z,2.45
2022-10-08T08:25:27.810Z,1.80
2022-10-08T08:26:35.902Z,2.10
2022-10-08T08:27:39.593Z,2.00
2022-10-08T08:28:42.791Z,2.03
2022-10-08T08:29:45.880Z,1.87
2022-10-08T08:30:48.402Z,2.10
2022-10-08T08:31:52.270Z,2.00
2022-10-08T08:32:54.866Z,2.10
2022-10-08T08:34:01.051Z,2.08
2022-10-08T08:35:03.899Z,1.77
2022-10-08T08:36:07.205Z,1.80
2022-10-08T08:37:09.868Z,2.00
2022-10-08T08:38:12.465Z,2.50
2022-10-08T08:39:34.347Z,1.98
2022-10-08T08:40:36.984Z,1.92
2022-10-08T08:41:45.177Z,2.00
2022-10-08T08:42:55.646Z,2.42
2022-10-08T08:44:10.097Z,2.33
2022-10-08T08:45:46.879Z,1.95
2022-10-08T08:46:53.599Z,1.90
2022-10-08T08:48:06.633Z,1.92
2022-10-08T08:49:28.523Z,2.47
2022-10-08T08:50:38.364Z,1.80
2022-10-08T08:51:41.450Z,2.22
2022-10-08T08:52:44.514Z,2.45
2022-10-08T08:53:47.613Z,2.92
2022-10-08T08:54:53.420Z,2.10
2022-10-08T08:56:00.148Z,2.12
2022-10-08T08:57:22.664Z,2.40
2022-10-08T08:58:35.879Z,2.00
2022-10-08T08:59:45.618Z,2.80
2022-10-08T09:00:58.162Z,2.33
2022-10-08T09:02:06.161Z,1.95
2022-10-08T09:03:22.285Z,2.47
2022-10-08T09:04:44.387Z,2.20
2022-10-08T09:05:56.900Z,2.08
2022-10-08T09:07:02.192Z,2.33
2022-10-08T09:08:17.295Z,2.05
2022-10-08T09:09:51.945Z,2.20
2022-10-08T09:10:58.467Z,1.92
2022-10-08T09:12:15.596Z,2.90
2022-10-08T09:13:27.272Z,2.45
2022-10-08T09:14:41.435Z,1.98
2022-10-08T09:15:45.354Z,1.80
2022-10-08T09:16:48.303Z,1.80
2022-10-08T09:17:53.284Z,2.28
2022-10-08T09:18:56.126Z,2.33
2022-10-08T09:19:58.973Z,2.45
2022-10-08T09:21:01.731Z,1.92
2022-10-08T09:22:10.652Z,1.92
2022-10-08T09:23:22.543Z,1.95
2022-10-08T09:24:26.002Z,1.73
2022-10-08T09:25:33.158Z,1.90
2022-10-08T09:26:36.549Z,2.50
2022-10-08T09:28:01.304Z,2.12
2022-10-08T09:29:05.348Z,2.20
2022-10-08T09:30:32.793Z,2.25
2022-10-08T09:31:49.312Z,2.00
2022-10-08T09:32:57.316Z,2.20
2022-10-08T09:34:13.390Z,2.10
2022-10-08T09:35:16.533Z,2.40
2022-10-08T09:36:53.107Z,2.20
2022-10-08T09:37:58.257Z,1.98
2022-10-08T09:39:06.707Z,2.00
2022-10-08T09:40:12.080Z,2.20
2022-10-08T09:41:20.314Z,2.15
2022-10-08T09:42:22.916Z,2.28
2022-10-08T09:43:25.763Z,2.20
2022-10-08T09:44:40.140Z,2.30
2022-10-08T09:45:47.148Z,2.30
2022-10-08T09:47:05.500Z,2.40
2022-10-08T09:48:13.207Z,2.25
2022-10-08T09:49:29.603Z,1.90
2022-10-08T09:50:32.301Z,2.12
2022-10-08T09:51:35.043Z,2.28
2022-10-08T09:52:41.688Z,2.22
2022-10-08T09:53:51.568Z,1.90
2022-10-08T09:55:20.409Z,2.17
2022-10-08T09:56:30.197Z,2.35
2022-10-08T09:58:58.491Z,2.22
2022-10-08T10:00:05.705Z,2.30
2022-10-08T10:01:16.113Z,2.22
2022-10-08T10:02:36.284Z,2.33
2022-10-08T10:03:47.744Z,2.08
2022-10-08T10:04:54.760Z,2.15
2022-10-08T10:05:59.331Z,2.50
2022-10-08T10:07:03.114Z,2.58
2022-10-08T10:08:06.026Z,2.83
2022-10-08T10:09:08.621Z,2.20
2022-10-08T10:10:22.338Z,2.28
2022-10-08T10:11:33.829Z,2.55
2022-10-08T10:12:42.644Z,2.20
2022-10-08T10:13:48.445Z,2.53
2022-10-08T10:14:56.686Z,2.28
2022-10-08T10:16:19.862Z,2.25
2022-10-08T10:17:35.365Z,2.25
2022-10-08T10:19:07.667Z,2.72
2022-10-08T10:20:36.222Z,1.90
2022-10-08T10:21:47.247Z,2.00
2022-10-08T10:23:17.573Z,1.90
2022-10-08T10:24:36.445Z,2.10
2022-10-08T10:25:49.814Z,2.58
2022-10-08T10:26:56.579Z,2.00
2022-10-08T10:28:06.625Z,2.58
2022-10-08T10:29:16.073Z,2.45
2022-10-08T10:30:22.457Z,2.45
2022-10-08T10:31:48.540Z,2.47
2022-10-08T10:32:55.273Z,2.80
2022-10-08T10:34:12.882Z,2.50
2022-10-08T10:35:24.565Z,2.30
2022-10-08T10:36:31.459Z,2.50
2022-10-08T10:37:40.162Z,2.20
2022-10-08T10:38:52.089Z,2.08
2022-10-08T10:40:16.322Z,2.12
2022-10-08T10:42:00.157Z,2.17
2022-10-08T10:43:53.135Z,2.08
2022-10-08T10:45:03.083Z,2.60
2022-10-08T10:46:11.870Z,2.22
2022-10-08T10:47:15.531Z,2.72
2022-10-08T10:48:18.677Z,2.20
2022-10-08T10:49:25.231Z,2.45
2022-10-08T10:50:43.747Z,2.40
2022-10-08T10:52:11.373Z,2.12
2022-10-08T10:53:22.453Z,2.20
2022-10-08T10:55:00.102Z,2.20
2022-10-08T10:56:16.683Z,2.00
2022-10-08T10:57:50.322Z,2.00
2022-10-08T10:59:11.609Z,1.90
2022-10-08T11:00:42.211Z,1.85
2022-10-08T11:03:16.724Z,2.10
2022-10-08T11:04:31.362Z,1.73
2022-10-08T11:05:36.865Z,2.15
2022-10-08T11:06:51.464Z,2.40
2022-10-08T11:08:12.021Z,1.80
2022-10-08T11:09:17.518Z,1.95
2022-10-08T11:10:49.205Z,1.75
2022-10-08T11:12:04.501Z,1.90
2022-10-08T11:13:18.093Z,2.00
2022-10-08T11:14:38.213Z,1.98
2022-10-08T11:15:52.600Z,2.00
2022-10-08T11:17:05.069Z,1.73
2022-10-08T11:18:46.787Z,1.80
2022-10-08T11:19:59.229Z,1.98
2022-10-08T11:21:07.707Z,1.62
2022-10-08T11:22:40.918Z,1.70
2022-10-08T11:24:02.295Z,1.90
2022-10-08T11:25:18.551Z,1.80
2022-10-08T11:26:55.344Z,1.80
2022-10-08T11:27:59.096Z,2.12
2022-10-08T11:29:30.181Z,1.70
2022-10-08T11:31:10.360Z,1.70
2022-10-08T11:32:17.013Z,1.92
2022-10-08T11:33:20.929Z,1.45
2022-10-08T11:34:33.343Z,1.75
2022-10-08T11:35:40.620Z,1.80
2022-10-08T11:36:52.742Z,1.92
2022-10-08T11:38:15.253Z,1.70
2022-10-08T11:39:43.656Z,2.00
2022-10-08T11:41:14.529Z,2.15
2022-10-08T11:42:46.289Z,2.25
2022-10-08T11:44:02.654Z,2.20
2022-10-08T11:45:41.551Z,2.08
2022-10-08T11:46:44.183Z,1.87
2022-10-08T11:47:53.591Z,1.67
2022-10-08T11:49:16.491Z,2.15
2022-10-08T11:50:24.146Z,1.80
2022-10-08T11:51:27.128Z,2.05
2022-10-08T11:52:31.233Z,1.80
2022-10-08T11:53:33.940Z,2.12
2022-10-08T11:54:38.734Z,1.87
2022-10-08T11:55:57.289Z,2.20
2022-10-08T11:57:21.139Z,1.92
2022-10-08T11:58:29.302Z,2.22
2022-10-08T11:59:39.916Z,2.20
2022-10-08T12:00:46.184Z,1.90
2022-10-08T12:01:56.641Z,1.90
2022-10-08T12:03:00.427Z,1.90
2022-10-08T12:04:22.727Z,1.92
2022-10-08T12:05:50.636Z,1.80
2022-10-08T12:07:30.625Z,2.20
2022-10-08T12:09:00.870Z,1.60
2022-10-08T12:10:06.674Z,1.60
2022-10-08T12:11:40.566Z,1.90
2022-10-08T12:12:49.481Z,1.87
2022-10-08T12:14:24.523Z,1.75
2022-10-08T12:15:27.980Z,1.60
2022-10-08T12:17:07.912Z,1.83
2022-10-08T12:18:10.487Z,2.10
2022-10-08T12:19:37.724Z,2.00
2022-10-08T12:20:42.586Z,2.83
2022-10-08T12:21:49.562Z,1.73
2022-10-08T12:23:11.714Z,1.85
2022-10-08T12:24:38.854Z,2.40
2022-10-08T12:25:49.203Z,2.08
2022-10-08T12:27:16.684Z,2.20
2022-10-08T12:28:19.425Z,2.17
2022-10-08T12:29:48.626Z,2.12
2022-10-08T12:30:53.823Z,2.15
2022-10-08T12:32:03.014Z,2.00
2022-10-08T12:33:09.744Z,2.10
2022-10-08T12:34:19.294Z,2.30
2022-10-08T12:35:27.621Z,1.98
2022-10-08T12:37:02.336Z,2.17
2022-10-08T12:38:30.039Z,2.15
2022-10-08T12:39:40.464Z,1.90
2022-10-08T12:42:24.549Z,2.28
2022-10-08T12:43:42.390Z,1.75
2022-10-08T12:44:51.002Z,2.12
2022-10-08T12:46:17.797Z,1.65
2022-10-08T12:47:46.034Z,1.87
2022-10-08T12:49:15.265Z,2.37
2022-10-08T12:50:39.856Z,1.50
2022-10-08T12:51:55.418Z,1.87
2022-10-08T12:53:03.008Z,2.00
2022-10-08T12:54:05.783Z,1.90
2022-10-08T12:55:17.841Z,1.92
2022-10-08T12:56:30.075Z,2.12
2022-10-08T12:57:38.748Z,2.37
2022-10-08T12:58:46.737Z,1.95
2022-10-08T12:59:50.650Z,2.22
2022-10-08T13:00:59.235Z,1.87
2022-10-08T13:02:01.871Z,1.90
2022-10-08T13:03:14.591Z,2.03
2022-10-08T13:04:19.129Z,2.25
2022-10-08T13:05:28.898Z,2.15
2022-10-08T13:06:33.951Z,2.05
2022-10-08T13:07:37.322Z,2.20
2022-10-08T13:08:40.782Z,2.22
2022-10-08T13:09:44.891Z,1.98
2022-10-08T13:10:47.779Z,2.30
2022-10-08T13:11:55.460Z,2.00
2022-10-08T13:13:04.119Z,2.37
2022-10-08T13:14:23.546Z,2.10
2022-10-08T13:15:26.423Z,2.08
2022-10-08T13:16:47.432Z,1.75
2022-10-08T13:17:50.503Z,2.05
2022-10-08T13:18:57.649Z,2.05
2022-10-08T13:20:12.763Z,2.40
2022-10-08T13:21:38.187Z,2.50
2022-10-08T13:22:41.076Z,2.47
2022-10-08T13:23:45.062Z,2.40
2022-10-08T13:24:47.795Z,2.17
2022-10-08T13:25:50.417Z,2.50
2022-10-08T13:26:54.935Z,2.30
2022-10-08T13:28:09.820Z,2.00
2022-10-08T13:29:21.304Z,5.43
2022-10-08T13:30:30.303Z,8.07
2022-10-08T13:31:35.360Z,9.10
2022-10-08T13:32:39.704Z,6.85
2022-10-08T13:33:42.285Z,3.83
2022-10-08T13:35:04.970Z,2.60
2022-10-08T13:36:08.005Z,2.37
2022-10-08T13:37:24.324Z,1.83
2022-10-08T13:38:31.642Z,2.45
2022-10-08T13:39:41.281Z,2.15
2022-10-08T13:40:53.360Z,1.80
2022-10-08T13:42:02.305Z,1.87
2022-10-08T13:43:06.929Z,2.10
2022-10-08T13:44:09.894Z,2.30
2022-10-08T13:45:23.103Z,2.30
2022-10-08T13:46:25.714Z,2.00
2022-10-08T13:47:29.597Z,1.83
2022-10-08T13:48:32.182Z,2.20
2022-10-08T13:49:35.021Z,2.30
2022-10-08T13:50:42.872Z,2.33
2022-10-08T13:51:45.767Z,1.75
2022-10-08T13:52:54.511Z,2.47
2022-10-08T13:53:57.334Z,2.17
2022-10-08T13:55:06.767Z,2.25
2022-10-08T13:56:09.615Z,2.00
2022-10-08T13:57:12.241Z,2.00
2022-10-08T13:58:17.294Z,2.10
2022-10-08T13:59:21.758Z,2.55
2022-10-08T14:00:24.514Z,2.08
2022-10-08T14:01:27.159Z,2.65
2022-10-08T14:02:29.803Z,2.47
2022-10-08T14:03:32.520Z,2.28
2022-10-08T14:04:35.310Z,2.10
2022-10-08T14:05:45.413Z,2.17
2022-10-08T14:06:51.184Z,2.22
2022-10-08T14:07:58.436Z,2.12
2022-10-08T14:09:01.464Z,2.60
2022-10-08T14:10:05.500Z,2.20
2022-10-08T14:11:08.159Z,2.00
2022-10-08T14:12:11.337Z,2.22
2022-10-08T14:13:15.938Z,2.20
2022-10-08T14:14:18.627Z,2.20
2022-10-08T14:15:21.729Z,2.42
2022-10-08T14:16:24.406Z,2.97
2022-10-08T14:17:27.305Z,2.35
2022-10-08T14:18:29.939Z,2.33
2022-10-08T14:19:32.494Z,2.53
2022-10-08T14:20:36.855Z,2.75
2022-10-08T14:21:40.630Z,2.87
2022-10-08T14:22:43.277Z,3.20
2022-10-08T14:23:46.104Z,3.33
2022-10-08T14:24:48.794Z,2.95
2022-10-08T14:25:52.354Z,2.45
2022-10-08T14:26:55.129Z,2.25
2022-10-08T14:28:01.336Z,2.00
2022-10-08T14:29:04.482Z,2.05
2022-10-08T14:30:07.967Z,2.35
2022-10-08T14:31:13.501Z,2.45
2022-10-08T14:32:16.327Z,2.70
2022-10-08T14:33:18.903Z,2.42
2022-10-08T14:34:21.579Z,2.03
2022-10-08T14:35:24.281Z,2.42
2022-10-08T14:36:33.151Z,2.42
2022-10-08T14:37:36.239Z,2.30
2022-10-08T14:38:38.871Z,2.60
2022-10-08T14:39:41.525Z,2.28
2022-10-08T14:40:44.151Z,2.53
2022-10-08T14:41:47.030Z,2.37
2022-10-08T14:42:50.530Z,2.95
2022-10-08T14:43:53.477Z,2.67
2022-10-08T14:44:55.991Z,2.33
2022-10-08T14:45:59.311Z,2.55
2022-10-08T14:47:01.937Z,2.60
2022-10-08T14:48:04.826Z,2.42
2022-10-08T14:49:07.452Z,3.10
2022-10-08T14:50:10.551Z,2.20
2022-10-08T14:51:13.274Z,2.55
2022-10-08T14:52:15.955Z,2.50
2022-10-08T14:53:18.558Z,2.58
2022-10-08T14:54:21.252Z,2.40
2022-10-08T14:55:24.511Z,2.28
2022-10-08T14:56:27.225Z,2.25
2022-10-08T14:57:30.166Z,2.20
2022-10-08T14:58:32.890Z,2.42
2022-10-08T14:59:39.870Z,2.30
2022-10-08T15:00:43.780Z,2.00
2022-10-08T15:01:46.939Z,2.15
2022-10-08T15:02:49.934Z,2.30
2022-10-08T15:03:53.006Z,2.20
2022-10-08T15:04:55.542Z,2.50
2022-10-08T15:06:00.152Z,2.28
2022-10-08T15:07:02.759Z,2.87
2022-10-08T15:08:05.538Z,2.90
2022-10-08T15:09:11.233Z,2.40
2022-10-08T15:10:13.988Z,2.60
2022-10-08T15:11:16.924Z,2.75